createdAt,value
2019-04-23T00:02:46.136Z,5.97
2019-04-23T00:04:54.172Z,5.80
2019-04-23T00:07:43.140Z,6.00
2019-04-23T00:10:12.722Z,5.73
2019-04-23T00:12:49.633Z,6.40
2019-04-23T00:15:08.753Z,6.30
2019-04-23T00:20:10.091Z,6.13
2019-04-23T00:23:02.441Z,6.57
2019-04-23T00:28:14.177Z,6.60
2019-04-23T00:30:44.078Z,6.90
2019-04-23T00:33:12.593Z,6.67
2019-04-23T00:35:43.424Z,6.63
2019-04-23T00:38:18.216Z,6.60
2019-04-23T00:40:47.287Z,6.60
2019-04-23T00:43:15.449Z,6.80
2019-04-23T00:48:31.146Z,5.40
2019-04-23T00:50:49.179Z,6.40
2019-04-23T00:53:23.416Z,6.40
2019-04-23T00:56:01.985Z,6.80
2019-04-23T00:58:29.095Z,6.43
2019-04-23T01:00:52.835Z,6.73
2019-04-23T01:03:21.422Z,6.43
2019-04-23T01:05:52.689Z,6.57
2019-04-23T01:11:02.734Z,6.43
2019-04-23T01:13:39.593Z,6.77
2019-04-23T01:19:04.170Z,7.03
2019-04-23T01:21:09.843Z,6.80
2019-04-23T01:24:02.739Z,7.27
2019-04-23T01:27:01.743Z,6.53
2019-04-23T01:29:30.475Z,6.50
2019-04-23T01:31:57.442Z,6.83
2019-04-23T01:34:31.425Z,6.80
2019-04-23T01:36:57.481Z,7.10
2019-04-23T01:39:28.031Z,7.13
2019-04-23T01:42:20.173Z,6.33
2019-04-23T01:44:36.728Z,7.23
2019-04-23T01:47:07.781Z,7.00
2019-04-23T01:49:48.407Z,6.93
2019-04-23T01:52:08.376Z,7.00
2019-04-23T01:54:39.435Z,7.20
2019-04-23T01:57:12.961Z,6.67
2019-04-23T01:59:49.462Z,7.20
2019-04-23T02:02:12.137Z,6.67
2019-04-23T02:04:46.045Z,7.03
2019-04-23T02:07:22.086Z,6.70
2019-04-23T02:09:50.976Z,7.40
2019-04-23T02:12:18.168Z,7.67
2019-04-23T02:14:51.672Z,7.70
2019-04-23T02:17:21.930Z,7.40
2019-04-23T02:19:51.742Z,7.30
2019-04-23T02:22:52.668Z,7.23
2019-04-23T02:25:34.901Z,8.00
2019-04-23T02:27:59.915Z,7.23
2019-04-23T02:33:10.476Z,8.23
2019-04-23T02:38:15.790Z,8.57
2019-04-23T02:40:49.514Z,7.73
2019-04-23T02:50:39.772Z,8.50
2019-04-23T02:53:20.782Z,8.70
2019-04-23T02:55:50.448Z,9.13
2019-04-23T02:58:18.559Z,8.43
2019-04-23T03:03:25.182Z,7.47
2019-04-23T03:05:54.912Z,7.90
2019-04-23T03:11:01.342Z,6.93
2019-04-23T03:19:02.621Z,8.17
2019-04-23T03:21:54.356Z,7.97
2019-04-23T03:24:39.021Z,7.23
2019-04-23T03:29:40.506Z,8.37
2019-04-23T03:37:20.124Z,7.87
2019-04-23T03:42:22.278Z,7.87
2019-04-23T03:44:47.793Z,7.17
2019-04-23T03:47:18.465Z,7.93
2019-04-23T03:49:48.134Z,8.87
2019-04-23T03:52:27.835Z,7.93
2019-04-23T03:54:46.211Z,8.37
2019-04-23T04:04:45.293Z,10.10
2019-04-23T04:12:29.284Z,10.10
2019-04-23T04:17:26.728Z,10.50
2019-04-23T04:22:39.928Z,10.77
2019-04-23T04:30:19.218Z,11.43
2019-04-23T04:32:36.744Z,10.97
2019-04-23T04:42:46.174Z,11.10
2019-04-23T04:45:22.815Z,12.27
2019-04-23T04:47:42.736Z,11.77
2019-04-23T04:50:08.232Z,12.27
2019-04-23T04:52:49.025Z,11.10
2019-04-23T04:55:21.487Z,12.20
2019-04-23T04:58:00.517Z,10.77
2019-04-23T05:00:29.068Z,11.47
2019-04-23T05:07:48.159Z,10.07
2019-04-23T05:10:32.491Z,9.57
2019-04-23T05:13:15.663Z,9.33
2019-04-23T05:15:16.899Z,8.73
2019-04-23T05:18:23.649Z,10.17
2019-04-23T05:20:53.248Z,9.60
2019-04-23T05:23:28.137Z,10.33
2019-04-23T05:25:52.883Z,8.83
2019-04-23T05:28:36.199Z,9.40
2019-04-23T05:33:23.506Z,8.47
2019-04-23T05:38:46.021Z,11.37
2019-04-23T05:41:10.030Z,10.83
2019-04-23T05:43:35.799Z,10.40
2019-04-23T05:46:04.724Z,9.63
2019-04-23T05:48:33.357Z,10.33
2019-04-23T05:51:10.997Z,9.67
2019-04-23T05:53:39.767Z,9.53
2019-04-23T05:56:10.165Z,9.90
2019-04-23T06:06:44.551Z,9.63
2019-04-23T06:11:45.055Z,8.33
2019-04-23T06:14:29.108Z,8.83
2019-04-23T06:21:44.271Z,8.77
2019-04-23T06:24:16.308Z,8.77
2019-04-23T06:31:47.538Z,7.90
2019-04-23T06:34:17.144Z,8.17
2019-04-23T06:36:46.309Z,8.47
2019-04-23T06:39:24.288Z,8.10
2019-04-23T06:41:50.118Z,10.48
2019-04-23T06:44:28.461Z,8.60
2019-04-23T06:46:56.855Z,8.50
2019-04-23T06:49:32.877Z,8.47
2019-04-23T06:52:10.484Z,7.47
2019-04-23T06:54:38.796Z,7.00
2019-04-23T06:57:09.062Z,8.73
2019-04-23T06:59:33.587Z,8.70
2019-04-23T07:02:10.010Z,7.30
2019-04-23T07:09:34.925Z,10.47
2019-04-23T07:12:08.834Z,8.97
2019-04-23T07:14:44.092Z,6.90
2019-04-23T07:17:09.219Z,7.50
2019-04-23T07:19:42.400Z,6.83
2019-04-23T07:25:00.126Z,6.43
2019-04-23T07:27:13.206Z,6.67
2019-04-23T07:32:15.447Z,6.83
2019-04-23T07:34:59.208Z,7.30
2019-04-23T07:37:17.614Z,7.47
2019-04-23T07:40:21.621Z,6.77
2019-04-23T07:43:03.547Z,7.37
2019-04-23T07:45:24.016Z,7.27
2019-04-23T07:48:43.737Z,6.67
2019-04-23T07:51:00.573Z,6.13
2019-04-23T07:53:37.963Z,6.17
2019-04-23T07:58:28.629Z,6.60
2019-04-23T08:01:04.803Z,6.33
2019-04-23T08:03:40.462Z,6.40
2019-04-23T08:06:08.827Z,10.70
2019-04-23T08:08:39.867Z,5.63
2019-04-23T08:13:47.329Z,6.07
2019-04-23T08:16:23.280Z,6.30
2019-04-23T08:18:49.448Z,6.87
2019-04-23T08:21:15.764Z,6.83
2019-04-23T08:29:25.123Z,6.33
2019-04-23T08:32:16.421Z,6.23
2019-04-23T08:34:37.988Z,6.57
2019-04-23T08:39:38.553Z,5.43
2019-04-23T08:42:27.327Z,5.30
2019-04-23T08:45:10.476Z,5.33
2019-04-23T08:47:42.215Z,5.53
2019-04-23T08:50:04.333Z,6.13
2019-04-23T08:52:38.384Z,6.58
2019-04-23T08:55:13.633Z,6.13
2019-04-23T08:57:38.016Z,6.07
2019-04-23T09:00:14.164Z,5.80
2019-04-23T09:02:47.757Z,6.20
2019-04-23T09:05:26.243Z,5.97
2019-04-23T09:07:57.141Z,6.67
2019-04-23T09:12:49.155Z,5.07
2019-04-23T09:15:33.040Z,5.40
2019-04-23T09:17:56.225Z,5.00
2019-04-23T09:20:29.454Z,5.87
2019-04-23T09:22:50.358Z,4.83
2019-04-23T09:25:34.648Z,5.53
2019-04-23T09:27:59.468Z,5.23
2019-04-23T09:30:32.329Z,4.80
2019-04-23T09:33:28.758Z,6.37
2019-04-23T09:36:16.829Z,5.50
2019-04-23T09:38:55.784Z,6.03
2019-04-23T09:41:36.201Z,5.57
2019-04-23T09:44:56.279Z,6.17
2019-04-23T09:49:47.309Z,5.43
2019-04-23T09:52:23.501Z,5.60
2019-04-23T09:55:01.696Z,5.93
2019-04-23T09:57:17.140Z,5.70
2019-04-23T09:59:49.894Z,6.07
2019-04-23T10:02:14.718Z,5.10
2019-04-23T10:04:38.000Z,6.50
2019-04-23T10:07:12.627Z,5.97
2019-04-23T10:09:30.088Z,6.27
2019-04-23T10:12:01.001Z,5.70
2019-04-23T10:14:30.546Z,5.90
2019-04-23T10:17:00.148Z,6.43
2019-04-23T10:19:30.762Z,5.90
2019-04-23T10:22:01.677Z,6.17
2019-04-23T10:24:31.099Z,6.50
2019-04-23T10:27:01.940Z,5.80
2019-04-23T10:29:38.226Z,5.10
2019-04-23T10:32:09.350Z,5.97
2019-04-23T10:34:57.874Z,5.40
2019-04-23T10:37:11.303Z,5.07
2019-04-23T10:39:44.709Z,5.30
2019-04-23T10:42:14.078Z,5.30
2019-04-23T10:45:10.843Z,5.23
2019-04-23T10:48:31.723Z,5.87
2019-04-23T10:51:18.600Z,5.40
2019-04-23T10:54:02.993Z,4.87
2019-04-23T10:59:03.238Z,6.50
2019-04-23T11:01:35.816Z,6.63
2019-04-23T11:04:21.470Z,6.23
2019-04-23T11:06:45.455Z,6.10
2019-04-23T11:09:27.541Z,6.20
2019-04-23T11:12:02.178Z,5.70
2019-04-23T11:14:36.993Z,6.00
2019-04-23T11:17:04.454Z,6.13
2019-04-23T11:19:51.587Z,5.47
2019-04-23T11:22:28.104Z,6.40
2019-04-23T11:24:41.524Z,6.10
2019-04-23T11:27:20.361Z,6.40
2019-04-23T11:30:00.247Z,6.87
2019-04-23T11:32:32.539Z,6.90
2019-04-23T11:37:25.409Z,6.13
2019-04-23T11:39:44.594Z,6.27
2019-04-23T11:44:49.895Z,6.90
2019-04-23T11:48:04.443Z,7.27
2019-04-23T11:49:52.474Z,6.57
2019-04-23T11:52:30.731Z,7.33
2019-04-23T11:54:53.502Z,7.13
2019-04-23T11:59:53.085Z,8.00
2019-04-23T12:02:38.620Z,7.50
2019-04-23T12:05:26.611Z,6.97
2019-04-23T12:08:18.147Z,7.93
2019-04-23T12:11:24.027Z,8.10
2019-04-23T12:13:28.411Z,7.77
2019-04-23T12:15:53.990Z,7.67
2019-04-23T12:18:34.849Z,8.00
2019-04-23T12:21:21.572Z,7.43
2019-04-23T12:26:33.849Z,7.07
2019-04-23T12:28:57.738Z,7.60
2019-04-23T12:31:27.669Z,7.33
2019-04-23T12:33:57.343Z,7.60
2019-04-23T12:36:36.968Z,6.20
2019-04-23T12:39:04.407Z,7.67
2019-04-23T12:41:35.869Z,6.60
2019-04-23T12:44:09.703Z,7.10
2019-04-23T12:46:45.777Z,7.27
2019-04-23T12:49:28.366Z,6.80
2019-04-23T12:51:50.262Z,7.07
2019-04-23T12:54:20.602Z,7.10
2019-04-23T12:56:48.089Z,8.80
2019-04-23T12:59:17.153Z,9.20
2019-04-23T13:01:51.369Z,6.80
2019-04-23T13:04:18.660Z,6.90
2019-04-23T13:06:44.165Z,7.50
2019-04-23T13:09:35.046Z,7.37
2019-04-23T13:11:52.883Z,7.20
2019-04-23T13:14:29.484Z,7.33
2019-04-23T13:17:01.875Z,10.97
2019-04-23T13:19:37.473Z,8.00
2019-04-23T13:24:46.116Z,7.57
2019-04-23T13:27:23.982Z,7.07
2019-04-23T13:29:49.991Z,8.20
2019-04-23T13:32:23.587Z,7.93
2019-04-23T13:35:04.693Z,7.50
2019-04-23T13:37:31.705Z,7.60
2019-04-23T13:39:51.909Z,8.30
2019-04-23T13:42:33.433Z,8.33
2019-04-23T13:45:01.007Z,8.47
2019-04-23T13:50:00.304Z,9.30
2019-04-23T13:52:58.703Z,8.10
2019-04-23T13:58:04.997Z,8.70
2019-04-23T14:00:06.499Z,8.10
2019-04-23T14:02:37.184Z,8.13
2019-04-23T14:05:21.693Z,7.70
2019-04-23T14:07:55.610Z,7.87
2019-04-23T14:10:32.243Z,7.80
2019-04-23T14:13:08.811Z,8.80
2019-04-23T14:15:36.022Z,8.63
2019-04-23T14:18:22.666Z,9.20
2019-04-23T14:20:27.679Z,9.43
2019-04-23T14:23:07.847Z,8.63
2019-04-23T14:25:28.168Z,11.27
2019-04-23T14:28:13.968Z,9.43
2019-04-23T14:30:38.532Z,9.03
2019-04-23T14:33:15.870Z,9.53
2019-04-23T14:35:40.281Z,8.83
2019-04-23T14:43:14.529Z,10.17
2019-04-23T14:48:27.898Z,10.23
2019-04-23T14:50:48.771Z,9.63
2019-04-23T14:53:24.271Z,9.53
2019-04-23T14:58:31.288Z,9.90
2019-04-23T15:01:16.021Z,9.40
2019-04-23T15:03:44.947Z,10.20
2019-04-23T15:11:21.311Z,10.30
2019-04-23T15:13:49.453Z,10.27
2019-04-23T15:19:31.555Z,9.23
2019-04-23T15:28:49.076Z,9.70
2019-04-23T15:34:14.009Z,9.83
2019-04-23T15:39:24.524Z,10.80
2019-04-23T15:44:13.591Z,10.13
2019-04-23T15:46:51.279Z,10.40
2019-04-23T15:51:56.625Z,11.10
2019-04-23T15:54:29.872Z,11.40
2019-04-23T15:56:55.060Z,14.97
2019-04-23T15:59:34.647Z,16.53
2019-04-23T16:01:41.360Z,12.27
2019-04-23T16:03:59.119Z,12.47
2019-04-23T16:06:32.314Z,11.47
2019-04-23T16:09:16.247Z,10.87
2019-04-23T16:11:51.803Z,11.13
2019-04-23T16:14:32.969Z,12.17
2019-04-23T16:20:06.134Z,11.40
2019-04-23T16:22:18.952Z,11.73
2019-04-23T16:25:03.527Z,11.03
2019-04-23T16:27:14.930Z,10.70
2019-04-23T16:35:28.940Z,11.23
2019-04-23T16:38:01.627Z,12.00
2019-04-23T16:42:59.799Z,11.60
2019-04-23T16:45:27.040Z,10.47
2019-04-23T16:47:59.658Z,11.07
2019-04-23T16:50:31.019Z,11.00
2019-04-23T16:53:02.382Z,11.83
2019-04-23T16:55:34.601Z,12.17
2019-04-23T16:58:03.595Z,11.57
2019-04-23T17:00:34.795Z,12.10
2019-04-23T17:03:11.176Z,11.60
2019-04-23T17:05:39.309Z,12.43
2019-04-23T17:08:31.272Z,12.70
2019-04-23T17:10:42.821Z,13.97
2019-04-23T17:15:53.387Z,11.93
2019-04-23T17:18:22.561Z,12.60
2019-04-23T17:20:47.124Z,12.73
2019-04-23T17:23:25.554Z,13.07
2019-04-23T17:25:53.772Z,13.27
2019-04-23T17:31:05.248Z,13.10
2019-04-23T17:33:39.498Z,12.70
2019-04-23T17:39:05.559Z,12.07
2019-04-23T17:44:10.870Z,11.80
2019-04-23T17:46:37.573Z,12.63
2019-04-23T17:49:04.337Z,12.70
2019-04-23T17:51:31.261Z,12.70
2019-04-23T17:54:10.753Z,13.63
2019-04-23T17:56:55.818Z,13.00
2019-04-23T17:59:14.056Z,13.33
2019-04-23T18:01:47.546Z,12.30
2019-04-23T18:04:23.949Z,13.10
2019-04-23T18:06:50.867Z,12.47
2019-04-23T18:11:57.668Z,12.97
2019-04-23T18:14:16.490Z,11.80
2019-04-23T18:16:57.431Z,13.87
2019-04-23T18:22:35.489Z,11.63
2019-04-23T18:25:08.497Z,12.03
2019-04-23T18:27:42.536Z,10.97
2019-04-23T18:30:19.124Z,12.10
2019-04-23T18:35:29.917Z,11.47
2019-04-23T18:38:09.376Z,12.07
2019-04-23T18:40:55.214Z,11.80
2019-04-23T18:43:21.096Z,13.63
2019-04-23T18:45:45.130Z,15.83
2019-04-23T18:58:48.586Z,15.93
2019-04-23T19:06:40.858Z,13.53
2019-04-23T19:10:09.996Z,12.33
2019-04-23T19:12:36.021Z,12.47
2019-04-23T19:15:09.407Z,11.90
2019-04-23T19:20:01.124Z,12.27
2019-04-23T19:25:07.573Z,13.30
2019-04-23T19:27:40.426Z,12.20
2019-04-23T19:30:26.423Z,12.73
2019-04-23T19:32:50.767Z,13.13
2019-04-23T19:35:44.280Z,18.63
2019-04-23T19:40:28.347Z,15.40
2019-04-23T19:42:55.766Z,13.90
2019-04-23T19:45:28.350Z,15.37
2019-04-23T19:47:58.586Z,15.83
2019-04-23T19:50:33.001Z,15.00
2019-04-23T19:55:30.306Z,18.00
2019-04-23T19:58:05.063Z,21.70
2019-04-23T20:00:53.460Z,18.07
2019-04-23T20:03:28.180Z,27.77
2019-04-23T20:05:41.425Z,18.27
2019-04-23T20:10:48.192Z,16.30
2019-04-23T20:13:14.031Z,16.00
2019-04-23T20:15:51.160Z,15.40
2019-04-23T20:18:09.061Z,15.40
2019-04-23T20:23:24.802Z,14.67
2019-04-23T20:28:41.360Z,12.33
2019-04-23T20:32:03.175Z,12.40
2019-04-23T20:34:22.630Z,11.77
2019-04-23T20:36:38.496Z,10.43
2019-04-23T20:42:10.787Z,10.90
2019-04-23T20:47:05.747Z,10.53
2019-04-23T20:49:40.159Z,10.73
2019-04-23T20:54:56.524Z,10.60
2019-04-23T20:57:31.520Z,10.43
2019-04-23T21:05:10.070Z,10.17
2019-04-23T21:13:06.856Z,11.00
2019-04-23T21:17:54.647Z,11.00
2019-04-23T21:22:57.205Z,9.83
2019-04-23T21:25:18.849Z,9.20
2019-04-23T21:28:06.364Z,8.87
2019-04-23T21:31:03.435Z,8.37
2019-04-23T21:36:18.842Z,8.90
2019-04-23T21:39:15.100Z,8.40
2019-04-23T21:42:01.916Z,8.57
2019-04-23T21:52:17.564Z,8.80
2019-04-23T21:54:41.214Z,8.23
2019-04-23T21:57:02.369Z,9.47
2019-04-23T21:59:36.857Z,9.57
2019-04-23T22:02:28.761Z,9.80
2019-04-23T22:07:06.949Z,10.17
2019-04-23T22:09:43.773Z,10.10
2019-04-23T22:14:45.380Z,9.13
2019-04-23T22:17:16.874Z,10.73
2019-04-23T22:20:00.641Z,10.33
2019-04-23T22:22:16.940Z,10.47
2019-04-23T22:24:50.010Z,9.83
2019-04-23T22:27:20.184Z,10.47
2019-04-23T22:32:33.977Z,9.90
2019-04-23T22:37:25.378Z,9.83
2019-04-23T22:43:06.167Z,10.23
2019-04-23T22:47:33.555Z,10.17
2019-04-23T22:55:07.948Z,11.53
2019-04-23T22:57:56.450Z,10.60
2019-04-23T23:00:13.378Z,10.57
2019-04-23T23:05:50.653Z,11.30
2019-04-23T23:08:10.901Z,11.30
2019-04-23T23:10:48.354Z,10.63
2019-04-23T23:13:12.032Z,10.70
2019-04-23T23:15:51.042Z,10.33
2019-04-23T23:18:19.848Z,10.07
2019-04-23T23:20:46.397Z,10.60
2019-04-23T23:25:52.033Z,11.43
2019-04-23T23:28:26.165Z,11.57
2019-04-23T23:30:58.169Z,11.50
2019-04-23T23:35:54.143Z,10.67
2019-04-23T23:38:42.166Z,11.07
2019-04-23T23:41:03.628Z,11.10
2019-04-23T23:43:36.628Z,11.47
2019-04-23T23:46:06.947Z,10.73
2019-04-23T23:48:30.814Z,9.80
2019-04-23T23:51:29.085Z,11.00
2019-04-23T23:53:40.061Z,10.63
2019-04-23T23:58:56.868Z,11.07
